Time;durP1;ratioP1;P1;durP2;ratioP2;P2;SDS_P1;SDS_P2;PMS_P1;PMS_P2;Temp;Humidity;BMP_temperature;BMP_pressure;BME280_temperature;BME280_humidity;BME280_pressure;Samples;Min_cycle;Max_cycle;Signal;HPM_P1;HPM_P2
2022/08/28 00:01:01;;;;;;;;;;;17.60;99.90;;;;;;4998518;28;19918;-80
2022/08/28 00:03:28;;;;;;;;;;;17.60;99.90;;;;;;5005936;28;20333;-80
2022/08/28 00:05:53;;;;;;;;;;;17.50;99.90;;;;;;4999905;28;19922;-78
2022/08/28 00:08:19;;;;;;;;;;;17.50;99.90;;;;;;5010212;28;19920;-79
2022/08/28 00:10:45;;;;;;;;;;;17.50;99.90;;;;;;5000013;28;20401;-79
2022/08/28 00:13:17;;;;;;;;;;;17.50;99.90;;;;;;5022660;28;19918;-79
2022/08/28 00:15:43;;;;;;;;;;;17.50;99.90;;;;;;4993672;28;19914;-79
2022/08/28 00:18:09;;;;;;;;;;;17.40;99.90;;;;;;4979177;28;20393;-81
2022/08/28 00:20:35;;;;;;;;;;;17.40;99.90;;;;;;4987830;28;19917;-81
2022/08/28 00:23:01;;;;;;;;;;;17.50;99.90;;;;;;4988722;28;19913;-79
2022/08/28 00:25:28;;;;;;;;;;;17.50;99.90;;;;;;5001231;28;20429;-80
2022/08/28 00:27:56;;;;;;;;;;;17.50;99.90;;;;;;5008429;28;19920;-79
2022/08/28 00:30:39;;;;;;;;;;;17.40;99.90;;;;;;5005069;28;19921;-80
2022/08/28 00:33:10;;;;;;;;;;;17.40;99.90;;;;;;5008673;28;20012;-79
2022/08/28 00:35:38;;;;;;;;;;;17.50;99.90;;;;;;5009437;28;19914;-80
2022/08/28 00:38:04;;;;;;;;;;;17.40;99.90;;;;;;4993603;28;19918;-80
2022/08/28 00:40:30;;;;;;;;;;;17.40;99.90;;;;;;5015469;28;20072;-81
2022/08/28 00:42:56;;;;;;;;;;;17.40;99.90;;;;;;5010797;28;20353;-80
2022/08/28 00:45:22;;;;;;;;;;;17.40;99.90;;;;;;4990064;28;21034;-80
2022/08/28 00:47:48;;;;;;;;;;;17.40;99.90;;;;;;5003836;28;19965;-81
2022/08/28 00:50:18;;;;;;;;;;;17.40;99.90;;;;;;4990030;28;19921;-80
2022/08/28 00:52:46;;;;;;;;;;;17.40;99.90;;;;;;5005475;28;19925;-80
2022/08/28 00:55:14;;;;;;;;;;;17.40;99.90;;;;;;5003973;28;19913;-80
2022/08/28 00:57:43;;;;;;;;;;;17.40;99.90;;;;;;5004532;28;19917;-79
2022/08/28 01:00:11;;;;;;;;;;;17.40;99.90;;;;;;5004039;28;20451;-80
2022/08/28 01:02:37;;;;;;;;;;;17.30;99.90;;;;;;4998000;28;19924;-80
2022/08/28 01:05:06;;;;;;;;;;;17.40;99.90;;;;;;5003721;28;19914;-80
2022/08/28 01:07:32;;;;;;;;;;;17.30;99.90;;;;;;5017014;28;19965;-80
2022/08/28 01:09:59;;;;;;;;;;;17.30;99.90;;;;;;4988503;28;19969;-80
2022/08/28 01:12:27;;;;;;;;;;;17.30;99.90;;;;;;4989089;28;20007;-81
2022/08/28 01:14:57;;;;;;;;;;;17.30;99.90;;;;;;4988479;28;19945;-80
2022/08/28 01:17:23;;;;;;;;;;;17.30;99.90;;;;;;5001179;28;19917;-80
2022/08/28 01:19:55;;;;;;;;;;;17.20;99.90;;;;;;5005099;28;19969;-80
2022/08/28 01:22:30;;;;;;;;;;;17.20;99.90;;;;;;5007633;28;20012;-80
2022/08/28 01:24:57;;;;;;;;;;;17.20;99.90;;;;;;5005550;28;19914;-80
2022/08/28 01:27:23;;;;;;;;;;;17.20;99.90;;;;;;5011822;28;19967;-78
2022/08/28 01:29:49;;;;;;;;;;;17.20;99.90;;;;;;5008656;28;19957;-79
2022/08/28 01:32:30;;;;;;;;;;;17.20;99.90;;;;;;4984902;28;20408;-80
2022/08/28 01:34:56;;;;;;;;;;;17.10;99.90;;;;;;4997895;28;19972;-80
2022/08/28 01:37:22;;;;;;;;;;;17.10;99.90;;;;;;4996274;28;19949;-80
2022/08/28 01:39:48;;;;;;;;;;;17.10;99.90;;;;;;5004240;28;20707;-80
2022/08/28 01:42:13;;;;;;;;;;;17.10;99.90;;;;;;5016241;28;19924;-80
2022/08/28 01:44:39;;;;;;;;;;;17.10;99.90;;;;;;4997844;28;20390;-80
2022/08/28 01:47:05;;;;;;;;;;;17.10;99.90;;;;;;5018602;28;20531;-80
2022/08/28 01:49:30;;;;;;;;;;;17.10;99.90;;;;;;4999033;28;20302;-80
2022/08/28 01:51:56;;;;;;;;;;;17.10;99.90;;;;;;5009821;28;20363;-80
2022/08/28 01:54:22;;;;;;;;;;;17.10;99.90;;;;;;5006902;28;19917;-80
2022/08/28 01:56:48;;;;;;;;;;;17.10;99.90;;;;;;4991108;28;19922;-80
2022/08/28 01:59:14;;;;;;;;;;;17.10;99.90;;;;;;5010900;28;19917;-80
2022/08/28 02:01:42;;;;;;;;;;;17.10;99.90;;;;;;5003657;28;19949;-80
2022/08/28 02:04:08;;;;;;;;;;;17.10;99.90;;;;;;5006650;28;20004;-80
2022/08/28 02:06:34;;;;;;;;;;;17.10;99.90;;;;;;5006545;28;19918;-80
2022/08/28 02:08:59;;;;;;;;;;;17.10;99.90;;;;;;5010265;28;20333;-80
2022/08/28 02:11:25;;;;;;;;;;;17.10;99.90;;;;;;5010580;28;19913;-80
2022/08/28 02:13:52;;;;;;;;;;;17.10;99.90;;;;;;4998488;28;19949;-80
2022/08/28 02:16:18;;;;;;;;;;;17.10;99.90;;;;;;5008170;28;19925;-80
2022/08/28 02:18:43;;;;;;;;;;;17.10;99.90;;;;;;5007500;28;19922;-80
2022/08/28 02:21:09;;;;;;;;;;;17.10;99.90;;;;;;5011980;28;20470;-80
2022/08/28 02:23:39;;;;;;;;;;;17.10;99.90;;;;;;5010247;28;19917;-80
2022/08/28 02:26:05;;;;;;;;;;;17.10;99.90;;;;;;5002869;28;20376;-79
2022/08/28 02:28:31;;;;;;;;;;;17.10;99.90;;;;;;5007511;28;19921;-80
2022/08/28 02:30:56;;;;;;;;;;;17.10;99.90;;;;;;4997179;28;19917;-80
2022/08/28 02:33:22;;;;;;;;;;;17.10;99.90;;;;;;4998655;28;19924;-80
2022/08/28 02:35:48;;;;;;;;;;;17.10;99.90;;;;;;5001764;28;19925;-79
2022/08/28 02:38:14;;;;;;;;;;;17.10;99.90;;;;;;5026939;28;19910;-80
2022/08/28 02:40:40;;;;;;;;;;;17.10;99.90;;;;;;5009986;28;19924;-80
2022/08/28 02:43:06;;;;;;;;;;;17.10;99.90;;;;;;4977121;28;19925;-80
2022/08/28 02:45:32;;;;;;;;;;;17.10;99.90;;;;;;5009224;28;20592;-80
2022/08/28 02:47:57;;;;;;;;;;;17.10;99.90;;;;;;5007543;28;19921;-80
2022/08/28 02:50:23;;;;;;;;;;;17.10;99.90;;;;;;5007592;28;19913;-80
2022/08/28 02:52:50;;;;;;;;;;;17.10;99.90;;;;;;5010579;28;20279;-80
2022/08/28 02:55:16;;;;;;;;;;;17.10;99.90;;;;;;4989201;28;19922;-80
2022/08/28 02:57:42;;;;;;;;;;;17.10;99.90;;;;;;5006682;28;20416;-80
2022/08/28 03:00:13;;;;;;;;;;;17.10;99.90;;;;;;4990668;28;19921;-80
2022/08/28 03:02:40;;;;;;;;;;;17.10;99.90;;;;;;5010752;28;19925;-80
2022/08/28 03:05:06;;;;;;;;;;;17.10;99.90;;;;;;4994386;28;20306;-80
2022/08/28 03:07:31;;;;;;;;;;;17.10;99.90;;;;;;5026311;28;19921;-80
2022/08/28 03:09:57;;;;;;;;;;;17.10;99.90;;;;;;5006695;28;20426;-80
2022/08/28 03:12:23;;;;;;;;;;;17.10;99.90;;;;;;5010550;28;19917;-80
2022/08/28 03:14:52;;;;;;;;;;;17.10;99.90;;;;;;5022532;28;19925;-80
2022/08/28 03:17:18;;;;;;;;;;;17.10;99.90;;;;;;5004652;28;19917;-80
2022/08/28 03:19:44;;;;;;;;;;;17.00;99.90;;;;;;5003066;28;19918;-79
2022/08/28 03:22:10;;;;;;;;;;;17.00;99.90;;;;;;5008681;28;20060;-80
2022/08/28 03:24:36;;;;;;;;;;;17.00;99.90;;;;;;5010577;28;19913;-80
2022/08/28 03:27:02;;;;;;;;;;;17.00;99.90;;;;;;5000119;28;19924;-80
2022/08/28 03:29:28;;;;;;;;;;;17.10;99.90;;;;;;4991416;28;20274;-79
2022/08/28 03:31:54;;;;;;;;;;;17.00;99.90;;;;;;5000536;28;19914;-80
2022/08/28 03:34:20;;;;;;;;;;;17.00;99.90;;;;;;5007348;28;19924;-80
2022/08/28 03:36:45;;;;;;;;;;;17.00;99.90;;;;;;4989788;28;19917;-80
2022/08/28 03:39:12;;;;;;;;;;;17.00;99.90;;;;;;5003275;28;20000;-79
2022/08/28 03:41:39;;;;;;;;;;;17.00;99.90;;;;;;5009019;28;20432;-80
2022/08/28 03:44:04;;;;;;;;;;;17.00;99.90;;;;;;4992010;28;19929;-80
2022/08/28 03:46:34;;;;;;;;;;;17.00;99.90;;;;;;5008287;28;19921;-81
2022/08/28 03:49:00;;;;;;;;;;;16.90;99.90;;;;;;5001458;28;20349;-80
2022/08/28 03:51:27;;;;;;;;;;;16.90;99.90;;;;;;4992119;28;20640;-80
2022/08/28 03:53:53;;;;;;;;;;;16.90;99.90;;;;;;4991743;28;19931;-80
2022/08/28 03:56:21;;;;;;;;;;;16.90;99.90;;;;;;5000557;28;19997;-80
2022/08/28 03:58:48;;;;;;;;;;;16.90;99.90;;;;;;4995668;28;19964;-80
2022/08/28 04:01:14;;;;;;;;;;;16.90;99.90;;;;;;5024285;28;19909;-80
2022/08/28 04:03:40;;;;;;;;;;;16.80;99.90;;;;;;5005242;28;19924;-81
2022/08/28 04:06:05;;;;;;;;;;;16.80;99.90;;;;;;4978819;28;19953;-81
2022/08/28 04:08:31;;;;;;;;;;;16.80;99.90;;;;;;4992507;28;19918;-81
2022/08/28 04:10:58;;;;;;;;;;;16.80;99.90;;;;;;4990530;28;19976;-80
2022/08/28 04:13:24;;;;;;;;;;;16.80;99.90;;;;;;5007903;28;19917;-80
2022/08/28 04:15:57;;;;;;;;;;;16.70;99.90;;;;;;5009485;28;20047;-80
2022/08/28 04:18:23;;;;;;;;;;;16.70;99.90;;;;;;5007304;28;20000;-81
2022/08/28 04:21:02;;;;;;;;;;;16.70;99.90;;;;;;4998266;28;20012;-80
2022/08/28 04:23:29;;;;;;;;;;;16.70;99.90;;;;;;4990810;28;20547;-80
2022/08/28 04:25:54;;;;;;;;;;;16.70;99.90;;;;;;5007983;28;19920;-80
2022/08/28 04:28:21;;;;;;;;;;;16.70;99.90;;;;;;5009971;28;20004;-81
2022/08/28 04:30:48;;;;;;;;;;;16.70;99.90;;;;;;5004351;28;19917;-80
2022/08/28 04:33:14;;;;;;;;;;;16.70;99.90;;;;;;4992021;28;19913;-80
2022/08/28 04:35:40;;;;;;;;;;;16.70;99.90;;;;;;5006395;28;19917;-81
2022/08/28 04:38:06;;;;;;;;;;;16.70;99.90;;;;;;5001590;28;19925;-80
2022/08/28 04:40:32;;;;;;;;;;;16.70;99.90;;;;;;5009370;28;19917;-80
2022/08/28 04:42:58;;;;;;;;;;;16.70;99.90;;;;;;5007123;28;20301;-80
2022/08/28 04:45:23;;;;;;;;;;;16.70;99.90;;;;;;5006301;28;20275;-81
2022/08/28 04:47:49;;;;;;;;;;;16.70;99.90;;;;;;5004384;28;19948;-80
2022/08/28 04:50:14;;;;;;;;;;;16.70;99.90;;;;;;4973139;28;20451;-81
2022/08/28 04:52:42;;;;;;;;;;;16.70;99.90;;;;;;4976337;28;19918;-80
2022/08/28 04:55:08;;;;;;;;;;;16.70;99.90;;;;;;4996161;28;19918;-81
2022/08/28 04:57:34;;;;;;;;;;;16.70;99.90;;;;;;4988271;28;19921;-80
2022/08/28 04:59:59;;;;;;;;;;;16.70;99.90;;;;;;4990172;28;19917;-81
2022/08/28 05:02:25;;;;;;;;;;;16.70;99.90;;;;;;4990939;28;19979;-80
2022/08/28 05:04:51;;;;;;;;;;;16.70;99.90;;;;;;5007476;28;19953;-80
2022/08/28 05:07:16;;;;;;;;;;;16.70;99.90;;;;;;5007007;28;19925;-80
2022/08/28 05:09:42;;;;;;;;;;;16.70;99.90;;;;;;4988635;28;19925;-80
2022/08/28 05:12:08;;;;;;;;;;;16.70;99.90;;;;;;5020336;28;20012;-80
2022/08/28 05:14:34;;;;;;;;;;;16.70;99.90;;;;;;4988154;28;20390;-80
2022/08/28 05:16:59;;;;;;;;;;;16.70;99.90;;;;;;5003994;28;19957;-80
2022/08/28 05:19:26;;;;;;;;;;;16.70;99.90;;;;;;4983265;28;19972;-80
2022/08/28 05:21:52;;;;;;;;;;;16.70;99.90;;;;;;4981931;28;19917;-80
2022/08/28 05:24:18;;;;;;;;;;;16.70;99.90;;;;;;5004037;28;19968;-80
2022/08/28 05:26:44;;;;;;;;;;;16.70;99.90;;;;;;5005783;28;19967;-80
2022/08/28 05:29:10;;;;;;;;;;;16.70;99.90;;;;;;5004913;28;20386;-80
2022/08/28 05:31:37;;;;;;;;;;;16.70;99.90;;;;;;5016317;28;20036;-80
2022/08/28 05:34:03;;;;;;;;;;;16.80;99.90;;;;;;5016422;28;19914;-80
2022/08/28 05:36:34;;;;;;;;;;;16.80;99.90;;;;;;4987323;28;19925;-80
2022/08/28 05:39:01;;;;;;;;;;;16.90;99.90;;;;;;5007463;28;19913;-79
2022/08/28 05:41:29;;;;;;;;;;;16.90;99.90;;;;;;5004649;28;20000;-80
2022/08/28 05:43:56;;;;;;;;;;;16.90;99.90;;;;;;5003868;28;19921;-80
2022/08/28 05:46:22;;;;;;;;;;;17.00;99.90;;;;;;5003004;28;19917;-80
2022/08/28 05:48:48;;;;;;;;;;;17.00;99.90;;;;;;5006947;28;19972;-80
2022/08/28 05:51:15;;;;;;;;;;;17.00;99.90;;;;;;4991069;28;19913;-80
2022/08/28 05:53:42;;;;;;;;;;;17.00;99.90;;;;;;5007037;28;19972;-79
2022/08/28 05:56:08;;;;;;;;;;;17.00;99.90;;;;;;5003507;28;20008;-79
2022/08/28 05:58:36;;;;;;;;;;;17.00;99.90;;;;;;4988460;28;19918;-80
2022/08/28 06:01:03;;;;;;;;;;;17.00;99.90;;;;;;5003767;28;19921;-79
2022/08/28 06:03:29;;;;;;;;;;;17.00;99.90;;;;;;5003645;28;19925;-80
2022/08/28 06:05:54;;;;;;;;;;;17.00;99.90;;;;;;4973859;28;19925;-80
2022/08/28 06:08:21;;;;;;;;;;;17.00;99.90;;;;;;5007340;28;19922;-80
2022/08/28 06:10:47;;;;;;;;;;;17.10;99.90;;;;;;4987561;28;19928;-80
2022/08/28 06:13:13;;;;;;;;;;;17.10;99.90;;;;;;4988739;28;19918;-79
2022/08/28 06:15:42;;;;;;;;;;;17.10;99.90;;;;;;5007578;28;19918;-80
2022/08/28 06:18:08;;;;;;;;;;;17.10;99.90;;;;;;4991266;28;19969;-80
2022/08/28 06:20:41;;;;;;;;;;;17.10;99.90;;;;;;5006058;28;19952;-79
2022/08/28 06:23:10;;;;;;;;;;;17.00;99.90;;;;;;5005635;28;19958;-79
2022/08/28 06:25:40;;;;;;;;;;;17.10;99.90;;;;;;4999872;28;19921;-79
2022/08/28 06:28:06;;;;;;;;;;;17.10;99.90;;;;;;5013968;28;19996;-79
2022/08/28 06:30:36;;;;;;;;;;;17.10;99.90;;;;;;5007774;28;20434;-79
2022/08/28 06:33:02;;;;;;;;;;;17.10;99.90;;;;;;5010427;28;19976;-80
2022/08/28 06:35:27;;;;;;;;;;;17.20;99.90;;;;;;5000425;28;19921;-79
2022/08/28 06:37:53;;;;;;;;;;;17.20;99.90;;;;;;5010415;28;19917;-79
2022/08/28 06:40:19;;;;;;;;;;;17.20;99.90;;;;;;5001499;28;19922;-79
2022/08/28 06:42:44;;;;;;;;;;;17.20;99.90;;;;;;5001978;28;19933;-79
2022/08/28 06:45:11;;;;;;;;;;;17.20;99.90;;;;;;4993798;28;19918;-79
2022/08/28 06:47:37;;;;;;;;;;;17.20;99.90;;;;;;5023386;28;19918;-80
2022/08/28 06:50:02;;;;;;;;;;;17.20;99.90;;;;;;5003759;28;19960;-79
2022/08/28 06:52:29;;;;;;;;;;;17.20;99.90;;;;;;5022275;28;19913;-79
2022/08/28 06:54:55;;;;;;;;;;;17.20;99.90;;;;;;5010466;28;19918;-79
2022/08/28 06:57:21;;;;;;;;;;;17.20;99.90;;;;;;5008928;28;19944;-79
2022/08/28 06:59:48;;;;;;;;;;;17.20;99.90;;;;;;5033214;28;20012;-80
2022/08/28 07:02:14;;;;;;;;;;;17.20;99.90;;;;;;5011328;28;19929;-81
2022/08/28 07:04:39;;;;;;;;;;;17.20;99.90;;;;;;5001422;28;19918;-80
2022/08/28 07:07:06;;;;;;;;;;;17.20;99.90;;;;;;4990919;28;19926;-81
2022/08/28 07:09:31;;;;;;;;;;;17.10;99.90;;;;;;4994961;28;19952;-80
2022/08/28 07:11:57;;;;;;;;;;;17.20;99.90;;;;;;5014322;28;19951;-80
2022/08/28 07:14:23;;;;;;;;;;;17.20;99.90;;;;;;4994108;28;20025;-80
2022/08/28 07:16:49;;;;;;;;;;;17.30;99.90;;;;;;5006530;28;19918;-80
2022/08/28 07:19:15;;;;;;;;;;;17.30;99.90;;;;;;4999000;28;19918;-80
2022/08/28 07:21:42;;;;;;;;;;;17.30;99.90;;;;;;5003063;28;19914;-79
2022/08/28 07:24:09;;;;;;;;;;;17.40;99.90;;;;;;5017496;28;20397;-80
2022/08/28 07:26:35;;;;;;;;;;;17.50;99.90;;;;;;5001891;28;19928;-79
2022/08/28 07:29:02;;;;;;;;;;;17.60;99.90;;;;;;4992694;28;19914;-80
2022/08/28 07:31:28;;;;;;;;;;;17.70;99.90;;;;;;5010486;28;20381;-80
2022/08/28 07:33:54;;;;;;;;;;;17.80;99.90;;;;;;4998227;28;19914;-78
2022/08/28 07:36:26;;;;;;;;;;;17.90;99.90;;;;;;4994163;28;19999;-81
2022/08/28 07:38:52;;;;;;;;;;;17.90;99.90;;;;;;5013629;28;20489;-78
2022/08/28 07:41:20;;;;;;;;;;;18.00;99.90;;;;;;5017799;28;19919;-80
2022/08/28 07:46:31;;;;;;;;;;;18.20;99.90;;;;;;5006408;28;19924;-79
2022/08/28 07:49:00;;;;;;;;;;;18.30;99.90;;;;;;5015197;28;19913;-80
2022/08/28 07:51:26;;;;;;;;;;;18.30;99.90;;;;;;4993121;28;19945;-78
2022/08/28 07:53:52;;;;;;;;;;;18.40;99.90;;;;;;4998814;28;19925;-80
2022/08/28 07:56:19;;;;;;;;;;;18.50;99.90;;;;;;5001115;28;19914;-79
2022/08/28 07:58:45;;;;;;;;;;;18.50;99.90;;;;;;4981317;28;19952;-80
2022/08/28 08:01:11;;;;;;;;;;;18.60;99.90;;;;;;4997344;28;19921;-79
2022/08/28 08:03:36;;;;;;;;;;;18.70;99.90;;;;;;5011628;28;19918;-79
2022/08/28 08:06:03;;;;;;;;;;;18.80;99.90;;;;;;4976581;28;19928;-80
2022/08/28 08:08:30;;;;;;;;;;;18.80;99.90;;;;;;5015667;28;20012;-81
2022/08/28 08:11:06;;;;;;;;;;;18.90;99.90;;;;;;5012277;28;19909;-82
2022/08/28 08:13:33;;;;;;;;;;;19.00;99.90;;;;;;5014037;28;19975;-79
2022/08/28 08:16:05;;;;;;;;;;;19.00;99.90;;;;;;4995595;28;19968;-81
2022/08/28 08:18:32;;;;;;;;;;;19.10;99.90;;;;;;5008600;28;19925;-81
2022/08/28 08:20:58;;;;;;;;;;;19.20;99.90;;;;;;5023115;28;19921;-81
2022/08/28 08:23:24;;;;;;;;;;;19.40;99.90;;;;;;4995749;28;19922;-79
2022/08/28 08:25:58;;;;;;;;;;;19.50;99.90;;;;;;5009434;28;19976;-82
2022/08/28 08:28:24;;;;;;;;;;;19.60;99.90;;;;;;5002293;28;19914;-81
2022/08/28 08:31:00;;;;;;;;;;;19.70;99.90;;;;;;5009549;28;19913;-81
2022/08/28 08:33:26;;;;;;;;;;;19.80;99.90;;;;;;5014181;28;19983;-80
2022/08/28 08:35:51;;;;;;;;;;;19.80;99.90;;;;;;4999328;28;19921;-79
2022/08/28 08:38:17;;;;;;;;;;;19.90;99.90;;;;;;5001526;28;21076;-79
2022/08/28 08:40:42;;;;;;;;;;;19.90;99.90;;;;;;5012372;28;20413;-81
2022/08/28 08:43:08;;;;;;;;;;;20.00;99.90;;;;;;5003618;28;19957;-81
2022/08/28 08:45:34;;;;;;;;;;;20.10;99.90;;;;;;4992185;28;20292;-79
2022/08/28 08:48:00;;;;;;;;;;;20.10;99.90;;;;;;4992798;28;19928;-79
2022/08/28 08:50:28;;;;;;;;;;;20.20;99.90;;;;;;5007387;28;19914;-78
2022/08/28 08:53:13;;;;;;;;;;;20.30;99.90;;;;;;5013632;28;19928;-81
2022/08/28 08:55:44;;;;;;;;;;;20.50;99.90;;;;;;5000927;28;19924;-80
2022/08/28 08:58:11;;;;;;;;;;;20.50;99.90;;;;;;4982922;28;19922;-80
2022/08/28 09:00:41;;;;;;;;;;;20.50;99.90;;;;;;4999106;28;19913;-81
2022/08/28 09:03:19;;;;;;;;;;;20.60;99.90;;;;;;5022324;28;19937;-80
2022/08/28 09:05:47;;;;;;;;;;;20.40;99.90;;;;;;5005333;28;20052;-81
2022/08/28 09:08:17;;;;;;;;;;;20.30;99.90;;;;;;5005506;28;19920;-80
2022/08/28 09:10:48;;;;;;;;;;;20.20;99.90;;;;;;5005768;28;19914;-80
2022/08/28 09:13:28;;;;;;;;;;;20.20;99.90;;;;;;4998822;28;19940;-80
2022/08/28 09:15:53;;;;;;;;;;;20.10;99.90;;;;;;5007102;28;19920;-80
2022/08/28 09:18:24;;;;;;;;;;;20.10;99.90;;;;;;5023576;28;19913;-81
2022/08/28 09:20:51;;;;;;;;;;;20.20;99.90;;;;;;5007747;28;19918;-80
2022/08/28 09:23:17;;;;;;;;;;;20.20;99.90;;;;;;5000227;28;19909;-80
2022/08/28 09:25:43;;;;;;;;;;;20.40;99.90;;;;;;5019362;28;19928;-80
2022/08/28 09:28:09;;;;;;;;;;;20.40;99.90;;;;;;5008572;28;20426;-81
2022/08/28 09:30:36;;;;;;;;;;;20.50;99.90;;;;;;4998575;28;19921;-80
2022/08/28 09:33:02;;;;;;;;;;;20.50;99.90;;;;;;5016141;28;20402;-80
2022/08/28 09:35:32;;;;;;;;;;;20.50;99.90;;;;;;5006862;28;19925;-81
2022/08/28 09:38:16;;;;;;;;;;;20.50;99.90;;;;;;5002868;28;19924;-81
2022/08/28 09:43:27;;;;;;;;;;;20.60;99.90;;;;;;5003547;28;19938;-81
2022/08/28 09:46:11;;;;;;;;;;;20.70;99.90;;;;;;4998259;28;19922;-81
2022/08/28 09:48:42;;;;;;;;;;;20.80;99.90;;;;;;4992942;28;19913;-80
2022/08/28 09:51:19;;;;;;;;;;;20.90;99.90;;;;;;5006222;28;19936;-81
2022/08/28 09:53:52;;;;;;;;;;;21.00;99.90;;;;;;5006106;28;19917;-81
2022/08/28 09:56:22;;;;;;;;;;;21.10;99.90;;;;;;5006438;28;20349;-81
2022/08/28 09:58:50;;;;;;;;;;;21.10;99.90;;;;;;5005866;28;19913;-80
2022/08/28 10:01:18;;;;;;;;;;;21.00;99.90;;;;;;5011138;28;20366;-80
2022/08/28 10:04:00;;;;;;;;;;;20.90;99.90;;;;;;5025492;28;20423;-81
2022/08/28 10:06:32;;;;;;;;;;;20.90;99.90;;;;;;5017808;28;19964;-80
2022/08/28 10:09:05;;;;;;;;;;;20.80;99.90;;;;;;5007478;28;19952;-81
2022/08/28 10:11:50;;;;;;;;;;;20.80;99.90;;;;;;5007750;28;20282;-81
2022/08/28 10:14:18;;;;;;;;;;;20.80;99.90;;;;;;4993363;28;19918;-81
2022/08/28 10:17:03;;;;;;;;;;;20.70;99.90;;;;;;5007509;28;19937;-80
2022/08/28 10:19:28;;;;;;;;;;;20.70;99.90;;;;;;5000329;28;20288;-80
2022/08/28 10:22:19;;;;;;;;;;;20.70;99.90;;;;;;5021215;28;20662;-81
2022/08/28 10:24:51;;;;;;;;;;;20.70;99.90;;;;;;5000193;28;19918;-81
2022/08/28 10:27:35;;;;;;;;;;;20.80;99.90;;;;;;5008208;28;19917;-81
2022/08/28 10:30:03;;;;;;;;;;;20.80;99.90;;;;;;5010634;28;20378;-81
2022/08/28 10:32:55;;;;;;;;;;;20.90;99.90;;;;;;4994251;28;19925;-80
2022/08/28 10:35:26;;;;;;;;;;;21.00;99.90;;;;;;5023795;28;19914;-80
2022/08/28 10:38:10;;;;;;;;;;;21.10;99.90;;;;;;5017837;28;19980;-80
2022/08/28 10:40:45;;;;;;;;;;;21.20;99.90;;;;;;5019978;28;20354;-80
2022/08/28 10:43:21;;;;;;;;;;;21.20;99.90;;;;;;5006104;28;19918;-80
2022/08/28 10:45:47;;;;;;;;;;;21.30;99.90;;;;;;4997319;28;19913;-81
2022/08/28 10:48:16;;;;;;;;;;;21.30;99.90;;;;;;5011086;28;19918;-81
2022/08/28 10:50:44;;;;;;;;;;;21.40;99.90;;;;;;5011716;28;19913;-81
2022/08/28 10:53:16;;;;;;;;;;;21.40;99.90;;;;;;5009333;28;19914;-81
2022/08/28 10:55:47;;;;;;;;;;;21.30;99.90;;;;;;5010682;28;19923;-80
2022/08/28 10:58:14;;;;;;;;;;;21.30;99.90;;;;;;5009134;28;20038;-81
2022/08/28 11:00:42;;;;;;;;;;;21.30;99.90;;;;;;5007194;28;20020;-80
2022/08/28 11:03:13;;;;;;;;;;;21.20;99.90;;;;;;5009975;28;20319;-80
2022/08/28 11:05:47;;;;;;;;;;;21.10;99.90;;;;;;4988964;28;19922;-80
2022/08/28 11:08:22;;;;;;;;;;;21.10;99.90;;;;;;5006038;28;19924;-79
2022/08/28 11:10:49;;;;;;;;;;;21.20;99.90;;;;;;5007893;28;19936;-81
2022/08/28 11:13:34;;;;;;;;;;;21.30;99.90;;;;;;4996198;28;19925;-80
2022/08/28 11:16:08;;;;;;;;;;;21.40;99.90;;;;;;5013649;28;19939;-81
2022/08/28 11:18:46;;;;;;;;;;;21.50;99.90;;;;;;4996041;28;20309;-78
2022/08/28 11:21:20;;;;;;;;;;;21.60;99.90;;;;;;5011640;28;20312;-81
2022/08/28 11:24:21;;;;;;;;;;;21.70;99.90;;;;;;5019676;28;19921;-81
2022/08/28 11:27:00;;;;;;;;;;;21.90;99.90;;;;;;4978207;28;19924;-80
2022/08/28 11:29:44;;;;;;;;;;;22.00;99.90;;;;;;5005044;28;19953;-81
2022/08/28 11:32:28;;;;;;;;;;;22.10;99.90;;;;;;5013654;28;19920;-80
2022/08/28 11:34:56;;;;;;;;;;;22.30;99.90;;;;;;4989558;28;20298;-80
2022/08/28 11:37:41;;;;;;;;;;;22.30;99.90;;;;;;5003520;28;19952;-80
2022/08/28 11:40:16;;;;;;;;;;;22.20;99.90;;;;;;5009806;28;19914;-81
2022/08/28 11:42:41;;;;;;;;;;;22.00;99.90;;;;;;5003115;28;19921;-82
2022/08/28 11:45:16;;;;;;;;;;;21.90;99.90;;;;;;4993145;28;20336;-80
2022/08/28 11:47:44;;;;;;;;;;;21.90;99.90;;;;;;5004332;28;20362;-81
2022/08/28 11:50:19;;;;;;;;;;;21.80;99.90;;;;;;4993352;28;20012;-81
2022/08/28 11:52:54;;;;;;;;;;;21.90;99.90;;;;;;5007786;28;20008;-82
2022/08/28 11:55:44;;;;;;;;;;;21.90;99.90;;;;;;4998997;28;19965;-81
2022/08/28 11:58:14;;;;;;;;;;;22.00;99.90;;;;;;4997952;28;20294;-81
2022/08/28 12:00:49;;;;;;;;;;;22.10;99.90;;;;;;5011155;28;19920;-80
2022/08/28 12:03:33;;;;;;;;;;;22.30;99.90;;;;;;5000328;28;20009;-81
2022/08/28 12:05:59;;;;;;;;;;;22.40;99.90;;;;;;5008408;28;19917;-80
2022/08/28 12:08:43;;;;;;;;;;;22.50;99.90;;;;;;4999036;28;19924;-80
2022/08/28 12:11:09;;;;;;;;;;;22.50;99.90;;;;;;4990404;28;19940;-80
2022/08/28 12:13:43;;;;;;;;;;;22.70;99.90;;;;;;5001376;28;21272;-82
2022/08/28 12:16:09;;;;;;;;;;;22.80;99.90;;;;;;5007364;28;20345;-79
2022/08/28 12:18:37;;;;;;;;;;;22.80;99.90;;;;;;5012089;28;19960;-81
2022/08/28 12:21:04;;;;;;;;;;;22.80;99.90;;;;;;5012420;28;19914;-78
2022/08/28 12:23:40;;;;;;;;;;;22.90;99.90;;;;;;5012188;28;19924;-80
2022/08/28 12:26:08;;;;;;;;;;;23.00;99.90;;;;;;5007138;28;19924;-80
2022/08/28 12:28:46;;;;;;;;;;;23.00;99.90;;;;;;5007000;28;20168;-78
2022/08/28 12:34:23;;;;;;;;;;;22.90;99.90;;;;;;5025682;28;19914;-80
2022/08/28 12:36:59;;;;;;;;;;;22.80;99.90;;;;;;5009534;28;19921;-81
2022/08/28 12:39:25;;;;;;;;;;;23.00;99.90;;;;;;5016800;28;19992;-81
2022/08/28 12:41:50;;;;;;;;;;;23.00;99.90;;;;;;5011178;28;20286;-81
2022/08/28 12:44:20;;;;;;;;;;;22.90;99.90;;;;;;5005553;28;19976;-80
2022/08/28 12:46:47;;;;;;;;;;;22.80;99.90;;;;;;5003713;28;19918;-80
2022/08/28 12:49:33;;;;;;;;;;;22.70;99.90;;;;;;5022232;28;20344;-80
2022/08/28 12:52:15;;;;;;;;;;;22.60;99.90;;;;;;5003529;28;19921;-80
2022/08/28 12:54:42;;;;;;;;;;;22.60;99.90;;;;;;5002461;28;20014;-80
2022/08/28 12:57:12;;;;;;;;;;;22.60;99.90;;;;;;5005760;28;19941;-81
2022/08/28 12:59:38;;;;;;;;;;;22.70;99.90;;;;;;5009269;28;20369;-81
2022/08/28 13:02:23;;;;;;;;;;;22.80;99.90;;;;;;5005509;28;19920;-79
2022/08/28 13:04:57;;;;;;;;;;;23.00;99.90;;;;;;4996585;28;19914;-79
2022/08/28 13:07:28;;;;;;;;;;;23.30;99.90;;;;;;5010290;28;20185;-80
2022/08/28 13:09:55;;;;;;;;;;;23.40;99.90;;;;;;5001142;28;20389;-80
2022/08/28 13:12:26;;;;;;;;;;;23.50;99.90;;;;;;5005181;28;20373;-80
2022/08/28 13:14:52;;;;;;;;;;;23.50;99.90;;;;;;4995752;28;19921;-81
2022/08/28 13:17:37;;;;;;;;;;;23.40;99.90;;;;;;5018266;28;19913;-80
2022/08/28 13:20:04;;;;;;;;;;;23.40;99.90;;;;;;5003737;28;19953;-80
2022/08/28 13:22:32;;;;;;;;;;;23.40;99.90;;;;;;5004029;28;20486;-80
2022/08/28 13:24:58;;;;;;;;;;;23.20;99.90;;;;;;5002519;28;19917;-79
2022/08/28 13:27:25;;;;;;;;;;;23.10;99.90;;;;;;5003627;28;19929;-80
2022/08/28 13:29:50;;;;;;;;;;;22.90;99.90;;;;;;5010656;28;20329;-80
2022/08/28 13:32:16;;;;;;;;;;;22.80;99.90;;;;;;5007724;28;19914;-80
2022/08/28 13:35:00;;;;;;;;;;;22.70;99.90;;;;;;5000429;28;19918;-81
2022/08/28 13:37:40;;;;;;;;;;;22.60;99.90;;;;;;5010397;28;19922;-80
2022/08/28 13:40:07;;;;;;;;;;;22.50;99.90;;;;;;5008225;28;19917;-80
2022/08/28 13:42:32;;;;;;;;;;;22.60;99.90;;;;;;4994260;28;19913;-80
2022/08/28 13:44:58;;;;;;;;;;;22.60;99.90;;;;;;5001316;28;19924;-81
2022/08/28 13:47:24;;;;;;;;;;;22.70;99.90;;;;;;4980199;28;19928;-80
2022/08/28 13:49:50;;;;;;;;;;;22.70;99.90;;;;;;5007935;28;19922;-80
2022/08/28 13:52:16;;;;;;;;;;;22.80;99.90;;;;;;4994626;28;19928;-80
2022/08/28 13:54:41;;;;;;;;;;;22.90;99.90;;;;;;5011187;28;19968;-80
2022/08/28 13:57:08;;;;;;;;;;;22.90;99.90;;;;;;5022790;28;19925;-81
2022/08/28 13:59:33;;;;;;;;;;;22.90;99.90;;;;;;5004667;28;20386;-80
2022/08/28 14:04:45;;;;;;;;;;;22.80;99.90;;;;;;5008219;28;19957;-80
2022/08/28 14:07:11;;;;;;;;;;;22.70;99.90;;;;;;5012575;28;20046;-80
2022/08/28 14:09:37;;;;;;;;;;;22.60;99.90;;;;;;4999697;28;19976;-81
2022/08/28 14:12:03;;;;;;;;;;;22.50;99.90;;;;;;5008853;28;20369;-80
2022/08/28 14:14:31;;;;;;;;;;;22.40;99.90;;;;;;5001434;28;19963;-81
2022/08/28 14:16:57;;;;;;;;;;;22.30;99.90;;;;;;5009178;28;19959;-81
2022/08/28 14:19:22;;;;;;;;;;;22.30;99.90;;;;;;5012094;28;20279;-81
2022/08/28 14:21:48;;;;;;;;;;;22.20;99.90;;;;;;5012059;28;19964;-81
2022/08/28 14:24:14;;;;;;;;;;;22.10;99.90;;;;;;5010531;28;19914;-80
2022/08/28 14:26:40;;;;;;;;;;;22.00;99.90;;;;;;5008788;28;19944;-80
2022/08/28 14:29:07;;;;;;;;;;;22.00;99.90;;;;;;5004553;28;20385;-81
2022/08/28 14:31:35;;;;;;;;;;;22.00;99.90;;;;;;5007620;28;19914;-81
2022/08/28 14:34:01;;;;;;;;;;;22.00;99.90;;;;;;5011477;28;19913;-81
2022/08/28 14:36:28;;;;;;;;;;;21.90;99.90;;;;;;5010026;28;19975;-81